Flight Track Log - Related Links

Times and Time Zones

All times are in EDT time to prevent confusion due to time zone crossing. See the UPS952 flight status page for this flight to view local times or setup timezone preferences in your user account.

Time Position Orientation Groundspeed Altitude Reporting Facility
EDT Latitude Longitude Course Direction KTS MPH feet Rate Location/Type
Sun 09:03:31 PM 40.7941 -111.9754 355° North 167 192 4,200  Level FlightAware
Sun 09:03:53 PM 40.8104 -111.9769 349° North 168 193 5,200 2,471 Climbing FlightAware
Sun 09:04:05 PM 40.8189 -111.9829 325° Northwest 178 205 5,600 2,000 Climbing FlightAware (KBTF)
Sun 09:04:11 PM 40.8222 -111.9881 294° West 201 231 5,800 1,500 Climbing FlightAware
Sun 09:04:25 PM 40.8257 -112.0054 276° West 221 254 6,100 1,941 Climbing FlightAware (KBTF)
Sun 09:04:45 PM 40.8261 -112.0341 271° West 243 280 6,900 2,100 Climbing FlightAware (KBTF)
Sun 09:05:05 PM 40.8266 -112.0645 270° West 265 305 7,500 2,400 Climbing FlightAware (KBTF)
Sun 09:05:25 PM 40.8275 -112.0977 271° West 269 310 8,500 3,000 Climbing FlightAware (KBTF)
Sun 09:05:43 PM 40.8259 -112.1234 261° West 280 322 9,400 1,895 Climbing FlightAware
Sun 09:06:03 PM 40.8194 -112.1612 257° West 296 341 9,700 980 Climbing FlightAware
Sun 09:06:32 PM 40.8092 -112.2130 248° West 297 342 10,200 1,077 Climbing FlightAware
Sun 09:06:42 PM 40.8022 -112.2285 237° Southwest 296 341 10,400 1,000 Climbing FlightAware
Sun 09:06:56 PM 40.7892 -112.2451 217° Southwest 308 354 10,600 1,538 Climbing FlightAware
Sun 09:07:21 PM 40.7549 -112.2705 205° Southwest 319 367 11,400 1,929 Climbing FlightAware
Sun 09:07:24 PM 40.7509 -112.2726 202° Southwest 329 379 11,500 3,353 Climbing FlightAware (KBTF)
Sun 09:07:55 PM 40.7038 -112.2879 192° South 348 400 13,300 3,738 Climbing FlightAware
Sun 09:08:25 PM 40.6561 -112.2972 187° South 343 395 15,300 2,625 Climbing FlightAware (KBTF)
Sun 09:08:59 PM 40.5989 -112.3058 187° South 400 460 16,100 1,612 Climbing FlightAware
Sun 09:09:32 PM 40.5336 -112.3167 188° South 440 506 17,100 2,190 Climbing FlightAware
Sun 09:10:02 PM 40.4722 -112.3301 190° South 458 527 18,400 2,903 Climbing FlightAware
Sun 09:10:34 PM 40.4043 -112.3451 189° South 469 540 20,100 3,000 Climbing FlightAware
Sun 09:10:46 PM 40.3772 -112.3511 191° South 474 545 20,600 3,000 Climbing FlightAware (KBTF)
Sun 09:11:14 PM 40.3212 -112.3737 204° Southwest 476 548 22,100 3,077 Climbing FlightAware
Sun 09:11:25 PM 40.2970 -112.3914 212° Southwest 474 545 22,600 2,625 Climbing FlightAware (KBTF)
Sun 09:11:46 PM 40.2641 -112.4281 227° Southwest 464 534 23,500 2,341 Climbing FlightAware (KBTF)
Sun 09:12:06 PM 40.2381 -112.4755 241° Southwest 468 539 24,200 2,341 Climbing FlightAware (KBTF)
Sun 09:12:27 PM 40.2180 -112.5269 243° Southwest 471 542 25,100 2,618 Climbing FlightAware
Sun 09:13:01 PM 40.1854 -112.6105 243° Southwest 476 548 26,600 2,344 Climbing FlightAware
Sun 09:13:31 PM 40.1537 -112.6931 243° Southwest 485 558 27,600 2,585 Climbing FlightAware
Sun 09:14:06 PM 40.1185 -112.7838 244° Southwest 476 548 29,400 3,209 Climbing FlightAware (KBTF)
Sun 09:14:14 PM 40.1099 -112.8059 244° Southwest 474 545 29,900 3,000 Climbing FlightAware
Sun 09:14:26 PM 40.0979 -112.8363 244° Southwest 471 542 30,400 2,571 Climbing FlightAware (KBTF)
Sun 09:14:35 PM 40.0895 -112.8578 244° Southwest 471 542 30,800 2,700 Climbing FlightAware
Sun 09:15:06 PM 40.0585 -112.9368 244° Southwest 467 537 32,200 2,522 Climbing FlightAware (KBTF)
Sun 09:15:44 PM 40.0219 -113.0295 243° Southwest 463 533 33,700 2,325 Climbing FlightAware
Sun 09:16:26 PM 39.9805 -113.1346 243° Southwest 458 527 35,300 1,816 Climbing FlightAware (KBTF)
Sun 09:17:00 PM 39.9477 -113.2172 243° Southwest 449 517 36,000 1,135 Climbing FlightAware
Sun 09:17:03 PM 39.9449 -113.2242 243° Southwest 448 516 36,000  Level FlightAware
Sun 09:17:41 PM 39.9087 -113.3154 244° Southwest 441 507 36,000  Level FlightAware
Sun 09:18:20 PM 39.8746 -113.4014 243° Southwest 447 514 36,000  Level FlightAware
Sun 09:19:06 PM 39.8279 -113.5184 243° Southwest 450 518 36,000  Level FlightAware (KBTF)
Sun 09:19:45 PM 39.7901 -113.6126 243° Southwest 452 520 36,000  Level FlightAware (KBTF)
Sun 09:20:21 PM 39.7597 -113.6881 242° Southwest 454 522 36,000  Level FlightAware
Sun 09:20:51 PM 39.7265 -113.7705 242° Southwest 454 522 36,000  Level FlightAware
Sun 09:21:43 PM 39.6757 -113.8962 242° Southwest 451 519 36,000  Level FlightAware
Sun 09:22:24 PM 39.6360 -113.9940 242° Southwest 452 520 36,000  Level FlightAware
Sun 09:23:07 PM 39.5941 -114.0968 242° Southwest 452 520 36,000  Level FlightAware (KBTF)
Sun 09:23:47 PM 39.5552 -114.1920 242° Southwest 452 520 36,000  Level FlightAware (KBTF)
Sun 09:24:28 PM 39.5154 -114.2889 242° Southwest 450 518 36,000  Level FlightAware (KBTF)
Sun 09:25:08 PM 39.4765 -114.3838 242° Southwest 448 516 36,000  Level FlightAware (KBTF)
Sun 09:25:46 PM 39.4388 -114.4752 242° Southwest 451 519 36,000  Level FlightAware (KBTF)
Sun 09:26:36 PM 39.3961 -114.5772 242° Southwest 453 521 36,000  Level Salt Center
Sun 09:27:37 PM 39.3394 -114.7136 242° Southwest 452 520 36,000  Level Salt Center
Sun 09:28:39 PM 39.2719 -114.8747 242° Southwest 455 524 36,000  Level Salt Center
Sun 09:29:40 PM 39.2153 -115.0108 242° Southwest 454 522 36,000  Level Salt Center
Sun 09:30:42 PM 39.1506 -115.1644 242° Southwest 448 516 36,000  Level Salt Center
Sun 09:31:43 PM 39.0928 -115.3017 242° Southwest 443 510 36,000  Level Salt Center
Sun 09:32:45 PM 39.0378 -115.4303 241° Southwest 443 510 36,000  Level Salt Center
Sun 09:33:46 PM 38.9783 -115.5672 241° Southwest 441 507 36,000  Level Salt Center
Sun 09:34:47 PM 38.9103 -115.7289 242° Southwest 434 499 36,000  Level Salt Center
Sun 09:35:49 PM 38.8525 -115.8614 241° Southwest 428 493 36,000  Level Salt Center
Sun 09:36:50 PM 38.8061 -115.9983 247° West 424 488 36,000  Level Salt Center
Sun 09:37:52 PM 38.7575 -116.1314 245° Southwest 417 480 36,000  Level Salt Center
Sun 09:38:53 PM 38.7083 -116.2639 245° Southwest 414 476 36,000  Level Salt Center
Sun 09:39:54 PM 38.6592 -116.3986 245° Southwest 414 476 36,000  Level Oakland Center
Sun 09:40:55 PM 38.6103 -116.5303 245° Southwest 413 475 36,000  Level Oakland Center
Sun 09:41:56 PM 38.5614 -116.6619 245° Southwest 412 474 36,000  Level Oakland Center
Sun 09:42:57 PM 38.5128 -116.7939 245° Southwest 412 474 36,000  Level Oakland Center
Sun 09:43:59 PM 38.4836 -116.9319 255° West 408 470 36,000  Level Oakland Center
Sun 09:45:00 PM 38.4572 -117.1000 259° West 407 468 36,000  Level Oakland Center
Sun 09:46:01 PM 38.4364 -117.2403 259° West 407 468 36,000  Level Oakland Center
Sun 09:47:02 PM 38.4153 -117.3800 259° West 407 468 36,000  Level Oakland Center
Sun 09:48:04 PM 38.3942 -117.5192 259° West 406 467 36,000  Level Oakland Center
Sun 09:49:05 PM 38.3725 -117.6592 259° West 406 467 36,000  Level Oakland Center
Sun 09:50:06 PM 38.3506 -117.7992 259° West 405 466 36,000  Level Oakland Center
Sun 09:51:07 PM 38.3286 -117.9400 259° West 406 467 36,000  Level Oakland Center
Sun 09:52:09 PM 38.3028 -118.1036 259° West 406 467 36,000  Level Oakland Center
Sun 09:53:10 PM 38.2822 -118.2314 258° West 407 468 36,000  Level Oakland Center
Sun 09:58:50 PM 38.1490 -119.0462 258° West 408 470 36,000  Level FlightAware
Sun 09:59:29 PM 38.1329 -119.1412 258° West 407 468 36,000  Level FlightAware
Sun 10:00:06 PM 38.1189 -119.2248 258° West 407 468 36,000  Level FlightAware
Sun 10:00:36 PM 38.1064 -119.2990 258° West 407 468 36,000 -694 Level FlightAware
Sun 10:02:59 PM 38.0559 -119.5939 258° West 414 476 34,000 -1,213 Descending FlightAware
Sun 10:05:13 PM 37.9920 -119.9604 258° West 443 510 30,400 -1,670 Descending FlightAware
Sun 10:05:55 PM 37.9761 -120.0509 257° West 455 524 29,100 -1,407 Descending FlightAware
Sun 10:06:34 PM 37.9550 -120.1692 257° West 451 519 28,500 -835 Descending FlightAware
Sun 10:07:14 PM 37.9372 -120.2683 257° West 447 514 28,000 -375 Descending FlightAware
Sun 10:07:54 PM 37.9186 -120.3725 257° West 446 513 28,000  Level FlightAware
Sun 10:08:34 PM 37.9003 -120.4737 257° West 450 518 28,000 -1,111 Level FlightAware
Sun 10:09:15 PM 37.8823 -120.5727 257° West 449 517 26,500 -1,500 Descending FlightAware
Sun 10:09:54 PM 37.8657 -120.6779 262° West 441 507 26,000 -1,690 Descending FlightAware
Sun 10:10:26 PM 37.8591 -120.7604 265° West 432 497 24,500 -1,926 Descending FlightAware
Sun 10:11:15 PM 37.8517 -120.8828 266° West 431 496 23,400 -2,022 Descending FlightAware
Sun 10:11:55 PM 37.8451 -120.9852 263° West 429 494 21,500 -3,114 Descending FlightAware
Sun 10:12:34 PM 37.8273 -121.0810 252° West 435 501 19,300 -3,000 Descending FlightAware
Sun 10:13:05 PM 37.8066 -121.1520 250° West 428 493 18,000 -2,550 Descending FlightAware
Sun 10:13:14 PM 37.8004 -121.1739 250° West 425 489 17,600 -2,400 Descending FlightAware
Sun 10:13:40 PM 37.7831 -121.2350 250° West 422 486 16,600 -2,488 Descending FlightAware
Sun 10:13:55 PM 37.7732 -121.2687 250° West 418 481 15,900 -3,091 Descending FlightAware
Sun 10:14:13 PM 37.7612 -121.3100 250° West 411 473 14,900 -3,231 Descending FlightAware
Sun 10:14:34 PM 37.7479 -121.3557 249° West 398 458 13,800 -2,710 Descending FlightAware
Sun 10:14:44 PM 37.7411 -121.3780 249° West 385 443 13,500 -1,756 Descending FlightAware
Sun 10:15:15 PM 37.7233 -121.4390 250° West 349 402 12,600 -1,645 Descending FlightAware
Sun 10:15:46 PM 37.7070 -121.4940 250° West 315 362 11,800 -1,500 Descending FlightAware
Sun 10:15:55 PM 37.7026 -121.5084 249° West 308 354 11,600 -1,935 Descending FlightAware
Sun 10:16:17 PM 37.6918 -121.5450 250° West 298 343 10,800 -2,341 Descending FlightAware
Sun 10:16:36 PM 37.6830 -121.5752 250° West 297 342 10,000 -2,571 Descending FlightAware
Sun 10:16:52 PM 37.6747 -121.6030 250° West 297 342 9,300 -2,842 Descending FlightAware
Sun 10:16:55 PM 37.6738 -121.6059 249° West 295 339 9,100 -2,250 Descending FlightAware
Sun 10:17:08 PM 37.6672 -121.6280 249° West 292 336 8,700 -1,909 Descending FlightAware
Sun 10:17:17 PM 37.6633 -121.6403 249° West 295 339 8,400 -1,500 Descending FlightAware
Sun 10:17:24 PM 37.6594 -121.6530 249° West 294 338 8,300 -600 Descending FlightAware
Sun 10:17:37 PM 37.6537 -121.6716 249° West 288 331 8,200 -400 Descending FlightAware
Sun 10:17:39 PM 37.6522 -121.6770 249° West 287 330 8,200  Level FlightAware
Sun 10:17:54 PM 37.6448 -121.7010 249° West 285 328 8,200  Level FlightAware
Sun 10:17:57 PM 37.6434 -121.7050 249° West 285 328 8,200 -400 Level FlightAware
Sun 10:18:09 PM 37.6375 -121.7240 249° West 283 326 8,100 -900 Descending FlightAware
Sun 10:18:17 PM 37.6344 -121.7341 249° West 281 323 7,900 -1,875 Descending FlightAware
Sun 10:18:25 PM 37.6303 -121.7470 249° West 282 325 7,600 -2,400 Descending FlightAware
Sun 10:18:37 PM 37.6245 -121.7655 248° West 283 326 7,100 -2,400 Descending FlightAware
Sun 10:18:40 PM 37.6229 -121.7700 247° West 284 327 7,000 -2,333 Descending FlightAware
Sun 10:18:55 PM 37.6148 -121.7940 247° West 281 323 6,400 -2,118 Descending FlightAware
Sun 10:18:57 PM 37.6141 -121.7963 247° West 281 323 6,400 -706 Level FlightAware
Sun 10:19:12 PM 37.6067 -121.8180 247° West 267 307 6,200 -632 Descending FlightAware
Sun 10:19:16 PM 37.6046 -121.8243 248° West 261 300 6,200  Level FlightAware
Sun 10:19:29 PM 37.5989 -121.8410 247° West 247 284 6,200 -286 Level FlightAware
Sun 10:19:37 PM 37.5960 -121.8502 247° West 242 278 6,100 -750 Descending FlightAware
Sun 10:19:45 PM 37.5921 -121.8620 247° West 242 278 6,000 -900 Descending FlightAware
Sun 10:19:57 PM 37.5873 -121.8762 247° West 247 284 5,800 -1,200 Descending FlightAware
Sun 10:20:00 PM 37.5853 -121.8820 247° West 247 284 5,700 -1,000 Descending FlightAware
Sun 10:20:15 PM 37.5785 -121.9020 247° West 246 283 5,500 -706 Descending FlightAware
Sun 10:20:17 PM 37.5779 -121.9039 247° West 247 284 5,500 -1,125 Level FlightAware
Sun 10:20:31 PM 37.5716 -121.9220 247° West 246 283 5,200 -947 Descending FlightAware
Sun 10:20:36 PM 37.5692 -121.9300 249° West 243 280 5,200  Level FlightAware
Sun 10:20:40 PM 37.5679 -121.9360 255° West 240 276 5,200  Level FlightAware
Sun 10:20:44 PM 37.5675 -121.9410 263° West 238 274 5,200  Level FlightAware
Sun 10:20:47 PM 37.5674 -121.9450 270° West 237 273 5,200  Level FlightAware
Sun 10:20:52 PM 37.5681 -121.9520 278° West 236 272 5,200  Level FlightAware
Sun 10:20:56 PM 37.5691 -121.9570 283° West 237 273 5,200  Level FlightAware
Sun 10:20:57 PM 37.5692 -121.9578 284° West 237 273 5,200 -800 Level FlightAware
Sun 10:21:11 PM 37.5733 -121.9770 285° West 238 274 5,000 -947 Descending FlightAware
Sun 10:21:16 PM 37.5744 -121.9828 284° West 237 273 4,900 -1,200 Descending FlightAware
Sun 10:21:31 PM 37.5784 -122.0040 283° West 230 265 4,600 -968 Descending FlightAware
Sun 10:21:47 PM 37.5819 -122.0233 283° West 214 246 4,400 -750 Descending FlightAware
Sun 10:21:55 PM 37.5839 -122.0330 286° West 205 236 4,300 -500 Descending FlightAware
Sun 10:21:59 PM 37.5851 -122.0380 291° West 200 230 4,300  Level FlightAware
Sun 10:22:03 PM 37.5867 -122.0420 297° West 199 229 4,300 -1,000 Level FlightAware
Sun 10:22:05 PM 37.5871 -122.0425 303° West 195 224 4,200 -1,200 Descending FlightAware
Sun 10:22:08 PM 37.5893 -122.0470 304° West 194 223 4,200 -667 Level FlightAware
Sun 10:22:14 PM 37.5927 -122.0520 309° West 189 217 4,100 -1,333 Descending FlightAware
Sun 10:22:26 PM 37.5990 -122.0611 311° West 181 208 3,800 -1,385 Descending FlightAware
Sun 10:22:27 PM 37.5999 -122.0620 311° West 179 206 3,800 -1,412 Level FlightAware
Sun 10:22:43 PM 37.6078 -122.0740 309° West 169 194 3,400 -1,263 Descending FlightAware
Sun 10:22:46 PM 37.6083 -122.0754 310° West 168 193 3,400 -1,091 Level FlightAware
Sun 10:22:54 PM 37.6132 -122.0830 310° West 165 190 3,200 -1,429 Descending FlightAware
Sun 10:23:07 PM 37.6193 -122.0917 310° West 164 189 2,900 -1,600 Descending FlightAware
Sun 10:23:09 PM 37.6206 -122.0940 310° West 164 189 2,800 -857 Descending FlightAware
Sun 10:23:14 PM 37.6231 -122.0970 310° West 165 190 2,800 -706 Level FlightAware
Sun 10:23:26 PM 37.6290 -122.1062 310° West 166 191 2,600 -1,125 Descending FlightAware
Sun 10:23:30 PM 37.6308 -122.1090 310° West 166 191 2,500 -1,263 Descending FlightAware
Sun 10:23:45 PM 37.6385 -122.1200 310° West 165 190 2,200 -1,059 Descending FlightAware
Sun 10:23:47 PM 37.6393 -122.1215 310° West 165 190 2,200 -857 Level FlightAware
Sun 10:23:59 PM 37.6450 -122.1300 310° West 157 181 2,000 -923 Descending FlightAware
Sun 10:24:13 PM 37.6513 -122.1390 310° West 143 165 1,800 -828 Descending FlightAware
Sun 10:24:28 PM 37.6573 -122.1480 311° West 130 150 1,600 -720 Descending FlightAware
Sun 10:24:38 PM 37.6610 -122.1540 310° West 129 148 1,500 -480 Descending FlightAware
Sun 10:24:53 PM 37.6669 -122.1630 310° West 132 152 1,400 -600 Descending FlightAware
Sun 10:25:08 PM 37.6729 -122.1720 310° West 132 152 1,200 -692 Descending FlightAware
Sun 10:25:19 PM 37.6772 -122.1780 311° West 133 153 1,100 -750 Descending FlightAware
Sun 10:25:32 PM 37.6826 -122.1860 310° West 131 151 900 -750 Descending FlightAware
Sun 10:25:59 PM 37.6929 -122.2010 310° West 130 150 600 -682 Descending FlightAware
Sun 10:26:16 PM 37.7001 -122.2120 310° West 136 157 400 -727 Descending FlightAware
Sun 10:26:32 PM 37.7064 -122.2220 310° West 138 159 200 -750 Descending FlightAware

Login

Don't have an account? Register now (free) for customized features, flight alerts, and more!